createdAt,value
2023-01-28T00:01:13.782Z,30.04
2023-01-28T00:03:40.144Z,29.90
2023-01-28T00:06:13.339Z,29.91
2023-01-28T00:08:39.839Z,29.97
2023-01-28T00:11:06.580Z,29.99
2023-01-28T00:13:32.971Z,30.17
2023-01-28T00:16:00.003Z,30.18
2023-01-28T00:18:26.745Z,30.25
2023-01-28T00:21:12.688Z,30.12
2023-01-28T00:23:39.384Z,30.46
2023-01-28T00:26:06.709Z,30.46
2023-01-28T00:28:33.027Z,30.32
2023-01-28T00:30:59.590Z,30.49
2023-01-28T00:33:25.906Z,30.46
2023-01-28T00:36:01.304Z,30.12
2023-01-28T00:38:27.831Z,30.57
2023-01-28T00:40:54.276Z,30.55
2023-01-28T00:43:20.591Z,30.49
2023-01-28T00:45:49.879Z,30.38
2023-01-28T00:48:16.508Z,30.72
2023-01-28T00:50:43.197Z,30.49
2023-01-28T00:53:09.560Z,30.42
2023-01-28T00:55:35.858Z,30.48
2023-01-28T00:58:02.182Z,30.27
2023-01-28T01:00:28.491Z,30.34
2023-01-28T01:02:54.909Z,30.20
2023-01-28T01:05:21.275Z,30.51
2023-01-28T01:07:47.598Z,30.44
2023-01-28T01:10:14.970Z,30.50
2023-01-28T01:12:41.333Z,30.63
2023-01-28T01:15:10.932Z,30.62
2023-01-28T01:17:37.871Z,30.29
2023-01-28T01:20:04.985Z,30.47
2023-01-28T01:22:34.824Z,30.23
2023-01-28T01:25:01.143Z,30.47
2023-01-28T01:27:27.483Z,30.49
2023-01-28T01:29:53.795Z,30.46
2023-01-28T01:32:20.688Z,30.47
2023-01-28T01:34:46.993Z,30.40
2023-01-28T01:37:13.320Z,30.51
2023-01-28T01:39:39.634Z,30.66
2023-01-28T01:42:05.973Z,30.45
2023-01-28T01:44:51.127Z,30.46
2023-01-28T01:47:18.002Z,30.47
2023-01-28T01:49:44.311Z,30.32
2023-01-28T01:52:11.137Z,30.38
2023-01-28T01:54:37.625Z,30.50
2023-01-28T01:57:04.087Z,30.55
2023-01-28T01:59:31.418Z,30.42
2023-01-28T02:01:58.181Z,30.56
2023-01-28T02:04:25.673Z,30.82
2023-01-28T02:06:52.099Z,30.61
2023-01-28T02:09:24.852Z,30.49
2023-01-28T02:11:51.809Z,30.60
2023-01-28T02:14:30.702Z,30.33
2023-01-28T02:16:57.566Z,30.58
2023-01-28T02:19:24.808Z,30.34
2023-01-28T02:21:56.746Z,30.40
2023-01-28T02:24:26.120Z,30.35
2023-01-28T02:26:52.359Z,30.60
2023-01-28T02:29:37.204Z,30.35
2023-01-28T02:32:04.395Z,30.62
2023-01-28T02:34:44.356Z,30.49
2023-01-28T02:37:16.828Z,30.60
2023-01-28T02:39:48.170Z,30.73
2023-01-28T02:42:16.349Z,30.59
2023-01-28T02:44:42.678Z,30.65
2023-01-28T02:47:30.919Z,30.71
2023-01-28T02:49:57.880Z,30.63
2023-01-28T02:52:46.818Z,30.45
2023-01-28T02:55:32.070Z,30.60
2023-01-28T02:58:00.422Z,30.77
2023-01-28T03:00:45.623Z,30.67
2023-01-28T03:03:15.251Z,30.55
2023-01-28T03:05:58.244Z,30.56
2023-01-28T03:08:56.861Z,30.61
2023-01-28T03:11:42.023Z,30.43
2023-01-28T03:14:26.999Z,30.73
2023-01-28T03:17:11.937Z,30.64
2023-01-28T03:19:57.128Z,30.58
2023-01-28T03:22:42.233Z,30.51
2023-01-28T03:25:27.443Z,30.60
2023-01-28T03:28:22.041Z,30.63
2023-01-28T03:31:12.724Z,30.55
2023-01-28T03:33:57.872Z,30.74
2023-01-28T03:36:43.120Z,30.66
2023-01-28T03:39:09.465Z,30.43
2023-01-28T03:41:35.791Z,30.52
2023-01-28T03:44:20.796Z,30.43
2023-01-28T03:46:48.637Z,30.44
2023-01-28T03:49:15.812Z,30.31
2023-01-28T03:51:42.131Z,30.52
2023-01-28T03:54:08.487Z,30.48
2023-01-28T03:56:37.727Z,30.68
2023-01-28T03:59:04.078Z,30.88
2023-01-28T04:01:30.431Z,30.55
2023-01-28T04:03:56.780Z,30.76
2023-01-28T04:06:23.087Z,30.77
2023-01-28T04:08:52.990Z,30.88
2023-01-28T04:11:21.286Z,30.82
2023-01-28T04:13:47.895Z,30.73
2023-01-28T04:16:15.509Z,30.70
2023-01-28T04:18:42.343Z,30.83
2023-01-28T04:21:09.006Z,30.79
2023-01-28T04:23:35.428Z,30.82
2023-01-28T04:26:01.824Z,30.74
2023-01-28T04:28:28.180Z,30.85
2023-01-28T04:30:54.537Z,30.90
2023-01-28T04:33:20.879Z,30.93
2023-01-28T04:35:47.196Z,30.80
2023-01-28T04:38:13.517Z,30.83
2023-01-28T04:40:39.846Z,30.76
2023-01-28T04:43:06.169Z,30.74
2023-01-28T04:45:32.482Z,30.70
2023-01-28T04:47:58.815Z,30.80
2023-01-28T04:50:25.114Z,30.88
2023-01-28T04:52:51.440Z,30.62
2023-01-28T04:55:17.997Z,30.78
2023-01-28T04:57:44.719Z,30.88
2023-01-28T05:00:11.271Z,30.80
2023-01-28T05:02:37.608Z,30.61
2023-01-28T05:05:06.074Z,30.88
2023-01-28T05:07:32.407Z,30.96
2023-01-28T05:09:58.725Z,30.80
2023-01-28T05:12:25.039Z,30.92
2023-01-28T05:14:51.364Z,30.69
2023-01-28T05:17:17.721Z,30.52
2023-01-28T05:19:46.267Z,30.64
2023-01-28T05:22:12.579Z,30.63
2023-01-28T05:24:38.919Z,30.42
2023-01-28T05:27:05.252Z,30.69
2023-01-28T05:29:31.585Z,30.74
2023-01-28T05:31:57.907Z,30.77
2023-01-28T05:34:24.485Z,30.91
2023-01-28T05:36:50.801Z,30.75
2023-01-28T05:39:17.140Z,30.64
2023-01-28T05:41:43.452Z,30.63
2023-01-28T05:44:10.095Z,30.67
2023-01-28T05:46:36.429Z,30.81
2023-01-28T05:49:02.763Z,30.70
2023-01-28T05:51:29.156Z,30.68
2023-01-28T05:53:55.578Z,30.85
2023-01-28T05:56:21.891Z,30.67
2023-01-28T05:58:48.221Z,30.89
2023-01-28T06:01:14.539Z,30.85
2023-01-28T06:03:40.872Z,30.84
2023-01-28T06:06:07.210Z,30.91
2023-01-28T06:08:33.545Z,30.97
2023-01-28T06:10:59.857Z,30.89
2023-01-28T06:13:26.199Z,30.87
2023-01-28T06:15:52.535Z,30.50
2023-01-28T06:18:18.913Z,30.60
2023-01-28T06:20:45.228Z,30.54
2023-01-28T06:23:11.555Z,30.38
2023-01-28T06:25:37.875Z,30.39
2023-01-28T06:28:04.427Z,30.47
2023-01-28T06:30:30.733Z,30.54
2023-01-28T06:32:57.428Z,30.53
2023-01-28T06:35:23.990Z,30.51
2023-01-28T06:37:50.498Z,30.82
2023-01-28T06:40:17.290Z,30.46
2023-01-28T06:42:44.051Z,30.81
2023-01-28T06:45:10.610Z,30.75
2023-01-28T06:47:38.440Z,30.76
2023-01-28T06:50:04.824Z,30.88
2023-01-28T06:52:31.305Z,30.62
2023-01-28T06:54:57.633Z,30.84
2023-01-28T06:57:24.210Z,31.00
2023-01-28T06:59:50.566Z,30.98
2023-01-28T07:02:16.889Z,30.78
2023-01-28T07:04:43.238Z,30.89
2023-01-28T07:07:09.839Z,31.05
2023-01-28T07:09:36.231Z,30.88
2023-01-28T07:12:05.229Z,30.95
2023-01-28T07:14:31.812Z,30.88
2023-01-28T07:16:58.120Z,31.00
2023-01-28T07:19:24.525Z,30.85
2023-01-28T07:21:50.973Z,30.66
2023-01-28T07:24:17.360Z,30.67
2023-01-28T07:26:43.702Z,30.75
2023-01-28T07:29:10.034Z,30.86
2023-01-28T07:31:36.411Z,30.76
2023-01-28T07:34:02.822Z,30.76
2023-01-28T07:36:29.181Z,30.90
2023-01-28T07:38:55.512Z,31.03
2023-01-28T07:41:21.815Z,30.65
2023-01-28T07:43:48.463Z,30.86
2023-01-28T07:46:14.800Z,30.67
2023-01-28T07:48:41.115Z,30.89
2023-01-28T07:51:07.418Z,30.95
2023-01-28T07:53:33.806Z,31.02
2023-01-28T07:56:00.888Z,30.91
2023-01-28T07:58:27.213Z,30.66
2023-01-28T08:00:55.984Z,30.73
2023-01-28T08:03:22.292Z,31.07
2023-01-28T08:05:49.368Z,31.12
2023-01-28T08:08:15.853Z,30.98
2023-01-28T08:10:42.707Z,30.41
2023-01-28T08:13:09.335Z,30.45
2023-01-28T08:15:36.734Z,30.42
2023-01-28T08:18:03.285Z,30.44
2023-01-28T08:20:30.041Z,30.38
2023-01-28T08:23:09.101Z,30.38
2023-01-28T08:25:35.434Z,30.51
2023-01-28T08:28:01.997Z,30.76
2023-01-28T08:30:28.552Z,30.65
2023-01-28T08:32:58.358Z,30.35
2023-01-28T08:35:25.097Z,30.50
2023-01-28T08:37:51.417Z,30.55
2023-01-28T08:40:18.076Z,30.66
2023-01-28T08:42:48.996Z,30.69
2023-01-28T08:45:15.360Z,30.85
2023-01-28T08:48:00.431Z,30.74
2023-01-28T08:50:27.284Z,31.04
2023-01-28T08:52:56.892Z,31.26
2023-01-28T08:55:23.554Z,31.20
2023-01-28T08:57:49.873Z,31.18
2023-01-28T09:00:16.645Z,31.13
2023-01-28T09:02:43.213Z,31.07
2023-01-28T09:05:10.609Z,31.30
2023-01-28T09:07:37.193Z,31.50
2023-01-28T09:10:03.916Z,31.38
2023-01-28T09:12:30.256Z,31.28
2023-01-28T09:14:57.155Z,31.48
2023-01-28T09:17:23.512Z,31.33
2023-01-28T09:19:49.946Z,31.38
2023-01-28T09:22:16.254Z,31.21
2023-01-28T09:24:42.592Z,31.19
2023-01-28T09:27:08.917Z,31.32
2023-01-28T09:29:35.267Z,31.40
2023-01-28T09:32:01.581Z,31.25
2023-01-28T09:34:27.907Z,31.35
2023-01-28T09:36:54.250Z,31.22
2023-01-28T09:39:20.634Z,31.42
2023-01-28T09:41:46.979Z,31.24
2023-01-28T09:44:25.515Z,31.29
2023-01-28T09:46:51.899Z,31.08
2023-01-28T09:49:32.179Z,31.16
2023-01-28T09:51:58.495Z,31.35
2023-01-28T09:54:32.663Z,31.28
2023-01-28T09:57:05.443Z,31.23
2023-01-28T09:59:33.411Z,31.20
2023-01-28T10:02:02.484Z,31.36
2023-01-28T10:04:36.863Z,31.24
2023-01-28T10:07:15.131Z,31.37
2023-01-28T10:09:44.464Z,31.36
2023-01-28T10:12:16.303Z,31.35
2023-01-28T10:15:03.436Z,31.42
2023-01-28T10:17:48.410Z,31.29
2023-01-28T10:20:26.074Z,31.32
2023-01-28T10:22:54.245Z,31.32
2023-01-28T10:25:21.584Z,31.44
2023-01-28T10:27:48.207Z,31.34
2023-01-28T10:30:18.789Z,31.34
2023-01-28T10:32:56.450Z,31.34
2023-01-28T10:35:24.055Z,31.28
2023-01-28T10:37:50.383Z,31.35
2023-01-28T10:40:17.449Z,31.23
2023-01-28T10:42:44.762Z,31.37
2023-01-28T10:45:13.919Z,28.66
2023-01-28T10:47:41.380Z,26.00
2023-01-28T10:50:07.799Z,26.80
2023-01-28T10:52:34.356Z,27.03
2023-01-28T10:55:05.172Z,25.89
2023-01-28T10:57:33.102Z,26.49
2023-01-28T11:00:09.301Z,26.39
2023-01-28T11:02:37.138Z,26.80
2023-01-28T11:05:05.033Z,27.10
